Aviation Digital Data Service (ADDS)

Output produced by METARs form (1442 UTC 17 November 2019)
found at http://aviationweather.gov/metar/data/
 
TAF EPDA 171400Z 1715/1724 09008KT CAVOK 
     TEMPO 1719/1724 5000 BR SCT005 
     PROB30 
     TEMPO 1720/1724 2000 BR BKN005